createdAt,value
2022-11-11T00:01:17.798Z,8.25
2022-11-11T00:04:03.009Z,7.68
2022-11-11T00:06:48.623Z,7.55
2022-11-11T00:09:33.839Z,8.15
2022-11-11T00:12:19.491Z,7.38
2022-11-11T00:15:06.951Z,7.10
2022-11-11T00:18:10.834Z,7.72
2022-11-11T00:21:17.868Z,8.82
2022-11-11T00:24:38.142Z,7.63
2022-11-11T00:27:24.026Z,7.05
2022-11-11T00:30:09.996Z,6.88
2022-11-11T00:32:56.455Z,8.20
2022-11-11T00:35:53.958Z,6.30
2022-11-11T00:38:45.519Z,6.55
2022-11-11T00:41:30.568Z,6.88
2022-11-11T00:44:16.357Z,7.05
2022-11-11T00:47:20.402Z,7.07
2022-11-11T00:50:30.458Z,6.07
2022-11-11T00:53:26.739Z,6.50
2022-11-11T00:56:12.523Z,7.43
2022-11-11T00:58:58.169Z,7.43
2022-11-11T01:01:43.768Z,6.25
2022-11-11T01:04:29.603Z,6.03
2022-11-11T01:07:15.158Z,6.03
2022-11-11T01:10:00.652Z,6.72
2022-11-11T01:12:46.107Z,6.22
2022-11-11T01:15:33.794Z,6.68
2022-11-11T01:18:25.459Z,6.50
2022-11-11T01:21:19.631Z,6.93
2022-11-11T01:24:05.518Z,7.45
2022-11-11T01:26:51.012Z,8.02
2022-11-11T01:29:36.612Z,9.20
2022-11-11T01:32:21.942Z,7.60
2022-11-11T01:35:08.038Z,8.70
2022-11-11T01:37:53.490Z,9.70
2022-11-11T01:40:47.816Z,9.15
2022-11-11T01:43:33.543Z,8.48
2022-11-11T01:46:29.281Z,9.77
2022-11-11T01:49:18.911Z,9.43
2022-11-11T01:52:12.079Z,8.93
2022-11-11T01:55:03.463Z,9.45
2022-11-11T01:57:59.517Z,8.02
2022-11-11T02:00:45.238Z,9.10
2022-11-11T02:03:35.476Z,7.20
2022-11-11T02:06:21.035Z,8.38
2022-11-11T02:09:07.990Z,9.23
2022-11-11T02:12:13.920Z,7.90
2022-11-11T02:15:01.154Z,8.50
2022-11-11T02:17:50.459Z,9.40
2022-11-11T02:20:39.292Z,9.45
2022-11-11T02:23:46.926Z,8.95
2022-11-11T02:26:34.891Z,9.38
2022-11-11T02:29:22.159Z,9.82
2022-11-11T02:32:07.884Z,9.95
2022-11-11T02:34:53.520Z,9.18
2022-11-11T02:37:38.756Z,9.05
2022-11-11T02:40:38.223Z,7.82
2022-11-11T02:43:24.034Z,7.50
2022-11-11T02:46:09.930Z,7.50
2022-11-11T02:48:55.253Z,7.65
2022-11-11T02:51:41.041Z,7.88
2022-11-11T02:54:26.625Z,7.72
2022-11-11T02:57:12.426Z,6.85
2022-11-11T03:00:00.199Z,7.70
2022-11-11T03:02:45.578Z,7.40
2022-11-11T03:05:31.642Z,8.10
2022-11-11T03:08:17.422Z,7.35
2022-11-11T03:11:02.782Z,7.43
2022-11-11T03:13:48.320Z,7.35
2022-11-11T03:16:53.004Z,7.55
2022-11-11T03:19:38.249Z,6.70
2022-11-11T03:25:38.545Z,6.68
2022-11-11T03:28:26.597Z,7.13
2022-11-11T03:31:11.993Z,7.18
2022-11-11T03:34:17.695Z,7.03
2022-11-11T03:37:23.891Z,6.13
2022-11-11T03:40:09.781Z,7.20
2022-11-11T03:42:58.336Z,7.20
2022-11-11T03:45:48.931Z,7.32
2022-11-11T03:48:35.084Z,7.50
2022-11-11T03:51:20.677Z,7.10
2022-11-11T03:54:06.410Z,5.68
2022-11-11T03:56:52.255Z,6.15
2022-11-11T03:59:37.604Z,7.43
2022-11-11T04:02:41.783Z,7.60
2022-11-11T04:05:46.294Z,7.10
2022-11-11T04:08:50.366Z,8.02
2022-11-11T04:11:43.546Z,7.80
2022-11-11T04:14:47.688Z,7.57
2022-11-11T04:17:33.161Z,6.88
2022-11-11T04:20:37.877Z,7.78
2022-11-11T04:23:23.524Z,6.90
2022-11-11T04:26:09.790Z,6.53
2022-11-11T04:29:13.940Z,7.35
2022-11-11T04:32:24.191Z,6.90
2022-11-11T04:35:12.232Z,7.88
2022-11-11T04:38:17.858Z,6.80
2022-11-11T04:41:03.659Z,7.07
2022-11-11T04:44:07.825Z,6.60
2022-11-11T04:46:53.330Z,9.15
2022-11-11T04:49:38.807Z,9.00
2022-11-11T04:52:27.086Z,9.60
2022-11-11T04:55:31.190Z,7.47
2022-11-11T04:58:18.612Z,6.70
2022-11-11T05:01:04.073Z,7.03
2022-11-11T05:03:49.291Z,6.95
2022-11-11T05:06:58.131Z,7.30
2022-11-11T05:09:44.893Z,9.07
2022-11-11T05:12:30.525Z,9.80
2022-11-11T05:15:34.524Z,9.35
2022-11-11T05:18:38.660Z,8.25
2022-11-11T05:21:29.659Z,9.48
2022-11-11T05:24:33.440Z,11.63
2022-11-11T05:27:20.993Z,10.13
2022-11-11T05:30:09.011Z,9.13
2022-11-11T05:32:57.236Z,12.98
2022-11-11T05:35:42.824Z,11.88
2022-11-11T05:38:30.115Z,10.93
2022-11-11T05:41:15.324Z,10.65
2022-11-11T05:44:00.906Z,8.55
2022-11-11T05:46:46.315Z,8.48
2022-11-11T05:49:32.091Z,7.97
2022-11-11T05:52:17.808Z,7.68
2022-11-11T05:55:02.991Z,9.15
2022-11-11T05:57:48.474Z,8.75
2022-11-11T06:00:33.814Z,9.18
2022-11-11T06:03:19.525Z,8.38
2022-11-11T06:06:05.322Z,8.45
2022-11-11T06:08:51.028Z,7.95
2022-11-11T06:11:36.785Z,7.10
2022-11-11T06:14:22.277Z,7.75
2022-11-11T06:17:07.744Z,8.15
2022-11-11T06:19:53.253Z,7.85
2022-11-11T06:22:56.811Z,7.63
2022-11-11T06:26:00.567Z,7.28
2022-11-11T06:28:51.887Z,6.95
2022-11-11T06:31:37.298Z,6.97
2022-11-11T06:34:22.692Z,6.45
2022-11-11T06:37:08.410Z,7.72
2022-11-11T06:39:53.877Z,6.97
2022-11-11T06:42:39.651Z,6.90
2022-11-11T06:45:26.427Z,6.90
2022-11-11T06:48:12.222Z,6.53
2022-11-11T06:51:05.939Z,6.57
2022-11-11T06:53:51.720Z,7.07
2022-11-11T06:56:37.048Z,6.55
2022-11-11T06:59:22.526Z,7.70
2022-11-11T07:02:13.731Z,8.00
2022-11-11T07:05:00.416Z,6.65
2022-11-11T07:07:45.880Z,7.13
2022-11-11T07:10:32.583Z,6.22
2022-11-11T07:13:17.967Z,6.25
2022-11-11T07:16:03.186Z,5.70
2022-11-11T07:18:48.825Z,6.05
2022-11-11T07:21:34.137Z,5.82
2022-11-11T07:24:19.737Z,5.22
2022-11-11T07:27:05.316Z,5.53
2022-11-11T07:29:50.877Z,5.10
2022-11-11T07:32:36.996Z,5.50
2022-11-11T07:35:22.931Z,6.13
2022-11-11T07:38:08.269Z,5.93
2022-11-11T07:40:54.056Z,4.75
2022-11-11T07:43:39.822Z,5.35
2022-11-11T07:46:26.173Z,4.90
2022-11-11T07:49:11.816Z,5.15
2022-11-11T07:51:57.489Z,6.47
2022-11-11T07:54:43.061Z,6.78
2022-11-11T07:57:28.512Z,6.22
2022-11-11T08:00:14.556Z,5.70
2022-11-11T08:03:02.984Z,5.93
2022-11-11T08:05:50.941Z,4.38
2022-11-11T08:08:36.593Z,4.30
2022-11-11T08:11:42.352Z,4.40
2022-11-11T08:14:27.726Z,4.57
2022-11-11T08:17:13.256Z,4.75
2022-11-11T08:19:58.710Z,4.47
2022-11-11T08:23:01.264Z,4.80
2022-11-11T08:25:49.198Z,5.10
2022-11-11T08:28:35.976Z,5.32
2022-11-11T08:31:21.112Z,5.43
2022-11-11T08:34:07.066Z,4.85
2022-11-11T08:36:52.759Z,5.43
2022-11-11T08:39:38.078Z,4.82
2022-11-11T08:42:24.226Z,4.93
2022-11-11T08:45:10.124Z,5.18
2022-11-11T08:47:55.648Z,4.72
2022-11-11T08:50:41.619Z,4.72
2022-11-11T08:53:28.163Z,5.47
2022-11-11T08:56:13.701Z,4.82
2022-11-11T08:58:59.186Z,4.68
2022-11-11T09:01:44.698Z,4.35
2022-11-11T09:04:44.444Z,4.30
2022-11-11T09:07:30.995Z,4.22
2022-11-11T09:10:17.011Z,4.30
2022-11-11T09:13:02.850Z,4.90
2022-11-11T09:15:48.460Z,4.70
2022-11-11T09:18:34.014Z,4.43
2022-11-11T09:21:19.646Z,4.20
2022-11-11T09:24:05.561Z,4.82
2022-11-11T09:26:51.335Z,4.28
2022-11-11T09:29:37.151Z,4.40
2022-11-11T09:32:22.689Z,4.13
2022-11-11T09:35:08.714Z,4.70
2022-11-11T09:37:59.620Z,4.32
2022-11-11T09:41:19.425Z,4.60
2022-11-11T09:44:05.289Z,4.18
2022-11-11T09:46:59.745Z,4.60
2022-11-11T09:49:45.066Z,4.28
2022-11-11T09:52:41.716Z,4.63
2022-11-11T09:55:35.966Z,5.00
2022-11-11T09:58:27.369Z,4.15
2022-11-11T10:01:18.013Z,4.13
2022-11-11T10:04:21.719Z,4.13
2022-11-11T10:07:25.724Z,4.47
2022-11-11T10:10:21.462Z,4.25
2022-11-11T10:13:15.322Z,4.82
2022-11-11T10:16:14.772Z,4.45
2022-11-11T10:19:28.812Z,4.47
2022-11-11T10:22:27.954Z,4.43
2022-11-11T10:25:13.192Z,4.25
2022-11-11T10:28:01.669Z,4.15
2022-11-11T10:30:49.524Z,4.50
2022-11-11T10:33:52.978Z,4.35
2022-11-11T10:36:54.506Z,4.75
2022-11-11T10:39:45.469Z,4.90
2022-11-11T10:42:30.800Z,5.05
2022-11-11T10:45:28.703Z,4.93
2022-11-11T10:48:21.107Z,5.20
2022-11-11T10:51:07.457Z,5.13
2022-11-11T10:54:10.188Z,5.68
2022-11-11T10:57:04.541Z,5.38
2022-11-11T10:59:57.088Z,5.43
2022-11-11T11:03:02.022Z,4.85
2022-11-11T11:06:10.918Z,5.43
2022-11-11T11:09:02.833Z,5.03
2022-11-11T11:12:04.896Z,5.60
2022-11-11T11:14:56.788Z,5.65
2022-11-11T11:18:01.335Z,5.22
2022-11-11T11:21:05.138Z,4.85
2022-11-11T11:23:50.887Z,5.53
2022-11-11T11:26:48.648Z,5.68
2022-11-11T11:29:44.275Z,5.90
2022-11-11T11:32:33.096Z,5.47
2022-11-11T11:35:40.494Z,5.65
2022-11-11T11:38:50.665Z,5.97
2022-11-11T11:41:40.532Z,5.68
2022-11-11T11:44:34.418Z,5.25
2022-11-11T11:47:25.661Z,5.53
2022-11-11T11:50:52.541Z,5.88
2022-11-11T11:54:03.015Z,6.25
2022-11-11T11:56:52.398Z,5.60
2022-11-11T12:00:03.394Z,5.80
2022-11-11T12:03:06.938Z,5.75
2022-11-11T12:06:12.658Z,5.32
2022-11-11T12:09:36.547Z,5.90
2022-11-11T12:12:21.827Z,4.85
2022-11-11T12:15:14.666Z,5.07
2022-11-11T12:18:19.027Z,4.78
2022-11-11T12:21:09.053Z,5.00
2022-11-11T12:24:01.597Z,4.47
2022-11-11T12:27:06.581Z,5.72
2022-11-11T12:29:55.345Z,5.53
2022-11-11T12:33:12.170Z,5.50
2022-11-11T12:36:11.115Z,5.55
2022-11-11T12:39:29.269Z,5.35
2022-11-11T12:42:40.280Z,5.38
2022-11-11T12:46:02.735Z,5.90
2022-11-11T12:49:31.071Z,5.85
2022-11-11T12:52:35.025Z,5.28
2022-11-11T12:55:30.789Z,6.03
2022-11-11T12:58:26.042Z,6.00
2022-11-11T13:01:25.220Z,5.82
2022-11-11T13:04:19.453Z,5.55
2022-11-11T13:07:23.588Z,6.50
2022-11-11T13:10:23.428Z,7.30
2022-11-11T13:13:30.962Z,7.78
2022-11-11T13:16:19.477Z,6.07
2022-11-11T13:19:22.086Z,5.50
2022-11-11T13:22:13.325Z,6.70
2022-11-11T13:25:04.164Z,6.03
2022-11-11T13:27:56.690Z,6.60
2022-11-11T13:31:06.929Z,6.82
2022-11-11T13:33:58.051Z,6.88
2022-11-11T13:36:53.511Z,6.88
2022-11-11T13:39:45.859Z,6.68
2022-11-11T13:42:48.285Z,6.22
2022-11-11T13:45:40.921Z,6.80
2022-11-11T13:48:29.877Z,6.55
2022-11-11T13:51:44.349Z,7.20
2022-11-11T13:54:40.762Z,6.88
2022-11-11T13:57:29.838Z,6.22
2022-11-11T14:00:18.709Z,7.10
2022-11-11T14:03:20.461Z,6.60
2022-11-11T14:06:14.943Z,6.85
2022-11-11T14:09:01.489Z,7.07
2022-11-11T14:11:46.878Z,7.57
2022-11-11T14:14:32.238Z,7.38
2022-11-11T14:17:18.653Z,7.75
2022-11-11T14:20:37.000Z,8.55
2022-11-11T14:23:34.582Z,8.00
2022-11-11T14:26:24.392Z,8.13
2022-11-11T14:29:18.864Z,8.13
2022-11-11T14:32:19.709Z,8.13
2022-11-11T14:35:32.137Z,7.45
2022-11-11T14:38:45.290Z,8.38
2022-11-11T14:41:51.665Z,8.50
2022-11-11T14:44:39.268Z,8.85
2022-11-11T14:47:31.439Z,8.10
2022-11-11T14:50:31.911Z,9.10
2022-11-11T14:53:20.633Z,9.35
2022-11-11T14:56:16.517Z,11.00
2022-11-11T14:59:08.180Z,9.65
2022-11-11T15:01:55.428Z,9.55
2022-11-11T15:04:41.321Z,12.35
2022-11-11T15:08:28.137Z,11.18
2022-11-11T15:11:19.110Z,11.70
2022-11-11T15:14:29.074Z,21.70
2022-11-11T15:17:39.299Z,11.35
2022-11-11T15:20:28.240Z,11.55
2022-11-11T15:23:41.222Z,11.70
2022-11-11T15:26:40.179Z,11.73
2022-11-11T15:29:44.506Z,11.93
2022-11-11T15:32:58.313Z,12.93
2022-11-11T15:35:50.170Z,12.82
2022-11-11T15:38:35.953Z,13.60
2022-11-11T15:41:35.293Z,14.88
2022-11-11T15:44:27.828Z,15.45
2022-11-11T15:47:16.148Z,16.60
2022-11-11T15:50:02.000Z,15.90
2022-11-11T15:52:47.587Z,17.20
2022-11-11T15:55:37.552Z,18.75
2022-11-11T15:58:33.389Z,18.85
2022-11-11T16:01:21.662Z,19.30
2022-11-11T16:04:27.738Z,20.55
2022-11-11T16:07:26.867Z,22.48
2022-11-11T16:10:21.758Z,23.52
2022-11-11T16:13:21.747Z,23.30
2022-11-11T16:16:16.128Z,25.20
2022-11-11T16:19:22.837Z,24.92
2022-11-11T16:22:15.266Z,25.10
2022-11-11T16:25:03.702Z,25.08
2022-11-11T16:27:49.441Z,27.83
2022-11-11T16:30:37.715Z,26.00
2022-11-11T16:33:26.154Z,25.00
2022-11-11T16:36:12.229Z,28.00
2022-11-11T16:39:19.219Z,26.13
2022-11-11T16:42:16.302Z,25.30
2022-11-11T16:45:05.135Z,26.15
2022-11-11T16:47:50.874Z,26.73
2022-11-11T16:50:57.581Z,27.27
2022-11-11T16:53:55.022Z,28.85
2022-11-11T16:56:47.984Z,29.30
2022-11-11T16:59:45.134Z,28.33
2022-11-11T17:02:31.058Z,26.60
2022-11-11T17:05:16.399Z,26.77
2022-11-11T17:08:40.025Z,27.02
2022-11-11T17:11:40.579Z,27.90
2022-11-11T17:14:27.918Z,28.20
2022-11-11T17:17:13.244Z,24.98
2022-11-11T17:20:02.174Z,26.60
2022-11-11T17:22:56.053Z,26.60
2022-11-11T17:25:41.176Z,27.70
2022-11-11T17:28:28.207Z,26.05
2022-11-11T17:31:15.007Z,28.08
2022-11-11T17:34:08.760Z,29.38
2022-11-11T17:36:54.589Z,31.13
2022-11-11T17:39:43.191Z,32.83
2022-11-11T17:42:30.239Z,28.17
2022-11-11T17:45:15.518Z,30.73
2022-11-11T17:48:01.028Z,28.10
2022-11-11T17:50:46.807Z,28.45
2022-11-11T17:53:37.036Z,28.25
2022-11-11T17:56:22.487Z,29.88
2022-11-11T17:59:08.128Z,27.80
2022-11-11T18:01:53.732Z,27.63
2022-11-11T18:04:40.097Z,28.58
2022-11-11T18:07:25.884Z,28.70
2022-11-11T18:10:12.580Z,28.98
2022-11-11T18:12:58.756Z,30.75
2022-11-11T18:15:44.029Z,31.23
2022-11-11T18:18:31.520Z,31.50
2022-11-11T18:21:17.151Z,27.23
2022-11-11T18:24:06.812Z,33.50
2022-11-11T18:26:52.392Z,34.63
2022-11-11T18:29:38.024Z,33.20
2022-11-11T18:32:23.597Z,32.80
2022-11-11T18:35:09.071Z,34.47
2022-11-11T18:37:54.822Z,32.10
2022-11-11T18:40:40.297Z,34.13
2022-11-11T18:43:26.062Z,33.45
2022-11-11T18:46:14.812Z,34.08
2022-11-11T18:49:01.897Z,31.13
2022-11-11T18:51:47.770Z,32.88
2022-11-11T18:54:33.071Z,31.63
2022-11-11T18:57:18.809Z,32.92
2022-11-11T19:00:04.737Z,33.22
2022-11-11T19:02:49.886Z,35.17
2022-11-11T19:05:35.658Z,32.53
2022-11-11T19:08:20.829Z,30.45
2022-11-11T19:11:07.872Z,30.98
2022-11-11T19:13:53.899Z,31.42
2022-11-11T19:16:40.304Z,28.80
2022-11-11T19:19:25.898Z,29.40
2022-11-11T19:22:11.523Z,28.77
2022-11-11T19:24:57.232Z,27.77
2022-11-11T19:27:42.964Z,24.73
2022-11-11T19:30:28.431Z,25.13
2022-11-11T19:33:13.938Z,26.33
2022-11-11T19:36:02.302Z,29.30
2022-11-11T19:38:48.720Z,23.83
2022-11-11T19:41:34.153Z,25.73
2022-11-11T19:44:19.812Z,24.63
2022-11-11T19:47:05.758Z,27.85
2022-11-11T19:49:51.365Z,26.65
2022-11-11T19:52:37.029Z,25.52
2022-11-11T19:55:22.578Z,27.05
2022-11-11T19:58:08.223Z,26.05
2022-11-11T20:00:54.078Z,25.90
2022-11-11T20:03:40.077Z,22.55
2022-11-11T20:06:27.278Z,23.10
2022-11-11T20:09:13.147Z,23.98
2022-11-11T20:11:58.584Z,26.63
2022-11-11T20:14:44.265Z,23.73
2022-11-11T20:17:29.819Z,23.35
2022-11-11T20:20:15.710Z,24.02
2022-11-11T20:23:07.327Z,25.80
2022-11-11T20:25:56.810Z,24.10
2022-11-11T20:28:43.231Z,24.20
2022-11-11T20:31:28.876Z,23.83
2022-11-11T20:34:14.261Z,23.23
2022-11-11T20:37:00.379Z,23.05
2022-11-11T20:39:46.094Z,24.27
2022-11-11T20:42:31.536Z,24.95
2022-11-11T20:45:17.343Z,24.08
2022-11-11T20:48:07.506Z,26.40
2022-11-11T20:50:52.698Z,23.00
2022-11-11T20:53:38.519Z,22.27
2022-11-11T20:56:24.884Z,22.38
2022-11-11T20:59:10.292Z,23.48
2022-11-11T21:01:56.044Z,21.95
2022-11-11T21:04:41.503Z,22.88
2022-11-11T21:07:27.110Z,21.77
2022-11-11T21:10:12.657Z,21.05
2022-11-11T21:12:58.134Z,21.15
2022-11-11T21:15:43.721Z,20.27
2022-11-11T21:18:29.466Z,20.80
2022-11-11T21:21:24.027Z,19.67
2022-11-11T21:24:10.030Z,20.63
2022-11-11T21:26:55.712Z,18.45
2022-11-11T21:29:41.018Z,18.33
2022-11-11T21:32:26.612Z,18.02
2022-11-11T21:35:12.235Z,16.45
2022-11-11T21:37:57.362Z,18.90
2022-11-11T21:40:42.996Z,19.63
2022-11-11T21:43:28.106Z,18.75
2022-11-11T21:46:16.922Z,19.33
2022-11-11T21:49:03.265Z,20.95
2022-11-11T21:51:50.665Z,18.77
2022-11-11T21:54:36.368Z,19.45
2022-11-11T21:57:22.103Z,16.48
2022-11-11T22:00:08.289Z,18.10
2022-11-11T22:02:53.498Z,20.25
2022-11-11T22:05:38.854Z,20.38
2022-11-11T22:08:24.749Z,19.92
2022-11-11T22:11:14.153Z,21.67
2022-11-11T22:14:01.363Z,21.30
2022-11-11T22:16:46.957Z,21.58
2022-11-11T22:19:32.479Z,20.17
2022-11-11T22:22:17.930Z,22.27
2022-11-11T22:25:03.690Z,21.88
2022-11-11T22:27:48.945Z,21.63
2022-11-11T22:30:34.265Z,20.58
2022-11-11T22:33:19.862Z,24.08
2022-11-11T22:36:08.252Z,22.45
2022-11-11T22:38:53.716Z,19.40
2022-11-11T22:41:40.513Z,21.27
2022-11-11T22:44:26.308Z,21.83
2022-11-11T22:47:11.819Z,22.13
2022-11-11T22:49:57.232Z,21.35
2022-11-11T22:52:46.787Z,18.73
2022-11-11T22:55:32.376Z,18.27
2022-11-11T22:58:18.069Z,17.70
2022-11-11T23:01:06.052Z,17.88
2022-11-11T23:03:53.421Z,16.90
2022-11-11T23:06:41.078Z,18.25
2022-11-11T23:09:26.734Z,17.65
2022-11-11T23:12:12.195Z,19.80
2022-11-11T23:14:57.838Z,18.67
2022-11-11T23:17:43.547Z,17.08
2022-11-11T23:20:28.963Z,16.98
2022-11-11T23:23:14.411Z,17.23
2022-11-11T23:26:09.653Z,17.80
2022-11-11T23:28:56.034Z,19.30
2022-11-11T23:31:41.661Z,18.77
2022-11-11T23:34:27.075Z,17.98
2022-11-11T23:37:12.707Z,18.08
2022-11-11T23:39:58.209Z,16.02
2022-11-11T23:42:43.716Z,17.60
2022-11-11T23:45:29.261Z,17.92
2022-11-11T23:48:14.785Z,18.52
2022-11-11T23:51:01.400Z,18.63
2022-11-11T23:53:47.042Z,18.13
2022-11-11T23:56:34.582Z,19.17
2022-11-11T23:59:20.283Z,18.48
